createdAt,value
2022-10-25T00:01:55.929Z,99858.28
2022-10-25T00:04:23.651Z,99869.50
2022-10-25T00:06:50.970Z,99860.00
2022-10-25T00:09:18.563Z,99871.91
2022-10-25T00:11:46.442Z,99870.47
2022-10-25T00:14:18.714Z,99884.47
2022-10-25T00:16:46.401Z,99891.34
2022-10-25T00:19:14.340Z,99900.03
2022-10-25T00:21:41.692Z,99906.34
2022-10-25T00:24:13.565Z,99899.81
2022-10-25T00:26:41.350Z,99899.06
2022-10-25T00:29:11.694Z,99883.56
2022-10-25T00:31:39.101Z,99891.59
2022-10-25T00:34:06.523Z,99894.34
2022-10-25T00:36:34.143Z,99895.81
2022-10-25T00:39:01.516Z,99893.09
2022-10-25T00:41:31.951Z,99888.72
2022-10-25T00:44:41.117Z,99892.53
2022-10-25T00:47:11.207Z,99897.09
2022-10-25T00:49:38.795Z,99902.37
2022-10-25T00:52:06.952Z,99909.56
2022-10-25T00:54:37.903Z,99899.25
2022-10-25T00:57:11.238Z,99903.19
2022-10-25T00:59:38.942Z,99901.94
2022-10-25T01:02:06.759Z,99912.00
2022-10-25T01:04:34.566Z,99914.75
2022-10-25T01:07:02.702Z,99924.13
2022-10-25T01:09:32.919Z,99919.88
2022-10-25T01:12:00.382Z,99926.13
2022-10-25T01:14:28.264Z,99925.00
2022-10-25T01:17:10.051Z,99925.75
2022-10-25T01:19:44.228Z,99917.53
2022-10-25T01:22:49.561Z,99907.84
2022-10-25T01:25:38.042Z,99906.88
2022-10-25T01:28:32.576Z,99904.13
2022-10-25T01:31:00.314Z,99902.81
2022-10-25T01:33:50.589Z,99905.22
2022-10-25T01:36:28.911Z,99906.59
2022-10-25T01:39:16.054Z,99908.25
2022-10-25T01:42:03.588Z,99895.75
2022-10-25T01:45:01.741Z,99904.72
2022-10-25T01:47:38.556Z,99904.06
2022-10-25T01:50:09.227Z,99903.94
2022-10-25T01:52:36.734Z,99908.28
2022-10-25T01:55:06.979Z,99899.28
2022-10-25T01:57:46.934Z,99899.75
2022-10-25T02:00:19.591Z,99905.59
2022-10-25T02:03:08.997Z,99893.66
2022-10-25T02:06:03.163Z,99878.63
2022-10-25T02:09:03.177Z,99875.41
2022-10-25T02:11:31.957Z,99892.19
2022-10-25T02:14:19.931Z,99891.28
2022-10-25T02:16:59.356Z,99889.47
2022-10-25T02:19:32.084Z,99887.59
2022-10-25T02:22:01.787Z,99891.34
2022-10-25T02:24:30.629Z,99896.22
2022-10-25T02:26:59.003Z,99894.69
2022-10-25T02:29:28.625Z,99885.94
2022-10-25T02:31:55.958Z,99879.25
2022-10-25T02:34:23.521Z,99878.72
2022-10-25T02:36:53.157Z,99869.97
2022-10-25T02:39:23.827Z,99875.25
2022-10-25T02:41:52.930Z,99875.00
2022-10-25T02:44:20.320Z,99877.31
2022-10-25T02:46:47.657Z,99879.50
2022-10-25T02:49:15.278Z,99884.41
2022-10-25T02:51:42.659Z,99905.50
2022-10-25T02:54:10.091Z,99903.84
2022-10-25T02:56:38.132Z,99901.16
2022-10-25T02:59:06.361Z,99894.53
2022-10-25T03:01:33.740Z,99905.06
2022-10-25T03:04:01.412Z,99898.78
2022-10-25T03:06:28.735Z,99907.22
2022-10-25T03:08:56.074Z,99905.59
2022-10-25T03:11:23.678Z,99905.50
2022-10-25T03:13:50.994Z,99907.13
2022-10-25T03:16:18.303Z,99914.81
2022-10-25T03:18:45.881Z,99910.09
2022-10-25T03:21:13.200Z,99918.66
2022-10-25T03:23:40.624Z,99909.87
2022-10-25T03:26:08.210Z,99907.94
2022-10-25T03:28:35.537Z,99910.22
2022-10-25T03:31:02.868Z,99906.81
2022-10-25T03:35:58.694Z,99932.59
2022-10-25T03:38:26.028Z,99929.09
2022-10-25T03:40:53.630Z,99926.03
2022-10-25T03:43:20.992Z,99925.19
2022-10-25T03:45:48.356Z,99928.03
2022-10-25T03:48:16.024Z,99930.22
2022-10-25T03:50:43.527Z,99929.38
2022-10-25T03:53:11.347Z,99917.31
2022-10-25T03:55:39.046Z,99902.06
2022-10-25T03:58:06.424Z,99897.31
2022-10-25T04:00:33.833Z,99899.22
2022-10-25T04:03:02.461Z,99891.00
2022-10-25T04:05:31.000Z,99895.22
2022-10-25T04:07:58.950Z,99896.28
2022-10-25T04:10:26.860Z,99897.59
2022-10-25T04:12:54.936Z,99898.94
2022-10-25T04:15:23.525Z,99905.53
2022-10-25T04:17:52.080Z,99905.22
2022-10-25T04:20:19.840Z,99905.81
2022-10-25T04:22:54.060Z,99898.94
2022-10-25T04:25:22.312Z,99895.37
2022-10-25T04:27:49.915Z,99903.13
2022-10-25T04:30:17.572Z,99902.50
2022-10-25T04:32:45.459Z,99903.84
2022-10-25T04:35:12.979Z,99901.87
2022-10-25T04:37:40.316Z,99899.25
2022-10-25T04:40:08.673Z,99900.56
2022-10-25T04:42:35.994Z,99902.69
2022-10-25T04:45:03.695Z,99906.59
2022-10-25T04:47:32.518Z,99912.59
2022-10-25T04:50:00.042Z,99913.66
2022-10-25T04:52:29.926Z,99903.56
2022-10-25T04:54:58.039Z,99912.81
2022-10-25T04:57:25.994Z,99922.38
2022-10-25T04:59:53.503Z,99924.69
2022-10-25T05:02:21.118Z,99925.22
2022-10-25T05:04:48.444Z,99921.34
2022-10-25T05:07:19.799Z,99918.75
2022-10-25T05:09:47.735Z,99921.03
2022-10-25T05:12:15.530Z,99921.38
2022-10-25T05:14:42.914Z,99920.50
2022-10-25T05:17:10.522Z,99917.81
2022-10-25T05:19:37.930Z,99914.78
2022-10-25T05:22:05.283Z,99920.28
2022-10-25T05:24:32.922Z,99916.41
2022-10-25T05:27:00.277Z,99927.66
2022-10-25T05:29:27.655Z,99939.41
2022-10-25T05:31:55.460Z,99946.25
2022-10-25T05:34:22.845Z,99958.31
2022-10-25T05:36:50.184Z,99961.25
2022-10-25T05:39:17.777Z,99969.97
2022-10-25T05:41:45.151Z,99977.63
2022-10-25T05:44:12.491Z,99981.00
2022-10-25T05:46:40.070Z,99994.97
2022-10-25T05:49:07.392Z,100006.41
2022-10-25T05:51:41.560Z,100012.97
2022-10-25T05:54:12.019Z,100017.09
2022-10-25T05:56:40.030Z,100016.84
2022-10-25T05:59:09.880Z,100011.06
2022-10-25T06:01:40.378Z,100003.97
2022-10-25T06:04:09.019Z,100008.09
2022-10-25T06:06:37.419Z,100009.09
2022-10-25T06:09:05.376Z,100011.06
2022-10-25T06:11:32.967Z,100020.63
2022-10-25T06:14:00.435Z,100026.28
2022-10-25T06:16:27.957Z,100024.75
2022-10-25T06:18:55.837Z,100037.16
2022-10-25T06:21:28.355Z,100033.22
2022-10-25T06:23:56.771Z,100040.34
2022-10-25T06:26:27.014Z,100047.41
2022-10-25T06:28:56.516Z,100054.25
2022-10-25T06:31:24.739Z,100060.56
2022-10-25T06:33:52.316Z,100065.50
2022-10-25T06:36:21.690Z,100075.66
2022-10-25T06:38:49.965Z,100072.88
2022-10-25T06:41:19.514Z,100065.44
2022-10-25T06:43:46.997Z,100064.41
2022-10-25T06:46:21.484Z,100053.66
2022-10-25T06:48:49.449Z,100053.63
2022-10-25T06:51:17.029Z,100069.53
2022-10-25T06:53:44.602Z,100060.50
2022-10-25T06:56:14.723Z,100060.69
2022-10-25T06:58:42.765Z,100060.69
2022-10-25T07:01:15.465Z,100055.06
2022-10-25T07:03:43.650Z,100049.00
2022-10-25T07:06:16.654Z,100046.97
2022-10-25T07:08:45.959Z,100053.94
2022-10-25T07:11:18.286Z,100049.88
2022-10-25T07:13:47.035Z,100058.94
2022-10-25T07:16:16.861Z,100059.50
2022-10-25T07:18:44.536Z,100057.00
2022-10-25T07:21:20.538Z,100058.03
2022-10-25T07:23:49.254Z,100045.81
2022-10-25T07:26:18.315Z,100063.25
2022-10-25T07:28:47.022Z,100068.13
2022-10-25T07:31:26.530Z,100071.72
2022-10-25T07:33:55.012Z,100075.06
2022-10-25T07:36:22.487Z,100071.00
2022-10-25T07:38:49.795Z,100076.50
2022-10-25T07:41:17.512Z,100083.78
2022-10-25T07:43:44.864Z,100080.72
2022-10-25T07:46:12.281Z,100081.56
2022-10-25T07:48:39.856Z,100082.69
2022-10-25T07:51:10.694Z,100088.41
2022-10-25T07:53:38.211Z,100092.38
2022-10-25T07:56:06.445Z,100093.84
2022-10-25T07:58:33.792Z,100093.56
2022-10-25T08:01:06.231Z,100095.06
2022-10-25T08:03:33.951Z,100095.06
2022-10-25T08:06:01.725Z,100105.91
2022-10-25T08:08:29.716Z,100103.59
2022-10-25T08:10:57.878Z,100096.00
2022-10-25T08:13:25.430Z,100095.97
2022-10-25T08:15:54.166Z,100097.03
2022-10-25T08:18:22.544Z,100088.53
2022-10-25T08:21:01.637Z,100088.37
2022-10-25T08:23:31.585Z,100089.25
2022-10-25T08:26:00.133Z,100083.59
2022-10-25T08:28:27.558Z,100085.19
2022-10-25T08:30:55.777Z,100089.53
2022-10-25T08:33:24.064Z,100090.94
2022-10-25T08:35:51.466Z,100095.75
2022-10-25T08:38:19.032Z,100086.78
2022-10-25T08:40:57.010Z,100096.09
2022-10-25T08:43:48.940Z,100115.34
2022-10-25T08:46:23.921Z,100102.38
2022-10-25T08:49:15.716Z,100103.34
2022-10-25T08:51:45.403Z,100106.31
2022-10-25T08:54:35.638Z,100111.19
2022-10-25T08:57:15.514Z,100112.88
2022-10-25T08:59:48.490Z,100110.00
2022-10-25T09:02:55.030Z,100118.03
2022-10-25T09:05:44.901Z,100124.34
2022-10-25T09:08:34.074Z,100129.69
2022-10-25T09:11:10.826Z,100127.75
2022-10-25T09:13:40.901Z,100120.94
2022-10-25T09:16:38.787Z,100131.44
2022-10-25T09:19:36.303Z,100124.25
2022-10-25T09:22:05.936Z,100115.44
2022-10-25T09:24:57.671Z,100121.75
2022-10-25T09:27:36.126Z,100126.59
2022-10-25T09:30:13.234Z,100132.88
2022-10-25T09:32:47.671Z,100116.16
2022-10-25T09:35:21.712Z,100110.12
2022-10-25T09:37:52.594Z,100123.28
2022-10-25T09:40:23.163Z,100134.16
2022-10-25T09:43:02.146Z,100131.72
2022-10-25T09:45:37.362Z,100125.19
2022-10-25T09:48:13.230Z,100122.37
2022-10-25T09:50:52.301Z,100125.94
2022-10-25T09:53:23.163Z,100132.50
2022-10-25T09:56:01.884Z,100135.00
2022-10-25T09:58:31.463Z,100140.38
2022-10-25T10:01:05.223Z,100139.34
2022-10-25T10:03:35.385Z,100142.91
2022-10-25T10:06:06.643Z,100148.97
2022-10-25T10:08:35.476Z,100145.19
2022-10-25T10:11:04.904Z,100154.03
2022-10-25T10:13:43.236Z,100141.25
2022-10-25T10:16:36.455Z,100140.84
2022-10-25T10:19:18.429Z,100150.94
2022-10-25T10:21:51.420Z,100154.44
2022-10-25T10:24:25.683Z,100147.44
2022-10-25T10:26:57.254Z,100137.41
2022-10-25T10:29:35.036Z,100137.88
2022-10-25T10:32:21.388Z,100137.59
2022-10-25T10:34:55.227Z,100142.63
2022-10-25T10:37:24.489Z,100141.41
2022-10-25T10:39:51.656Z,100131.47
2022-10-25T10:42:43.432Z,100128.00
2022-10-25T10:45:12.311Z,100136.50
2022-10-25T10:47:48.780Z,100138.13
2022-10-25T10:50:22.573Z,100136.09
2022-10-25T10:53:01.942Z,100139.19
2022-10-25T10:55:32.672Z,100140.16
2022-10-25T10:58:06.118Z,100146.56
2022-10-25T11:00:34.451Z,100148.59
2022-10-25T11:03:01.888Z,100149.25
2022-10-25T11:05:33.915Z,100149.22
2022-10-25T11:08:07.641Z,100147.59
2022-10-25T11:10:38.710Z,100145.97
2022-10-25T11:13:14.975Z,100143.19
2022-10-25T11:16:24.431Z,100140.38
2022-10-25T11:19:06.468Z,100141.25
2022-10-25T11:21:33.658Z,100144.53
2022-10-25T11:24:38.200Z,100141.75
2022-10-25T11:27:11.468Z,100144.56
2022-10-25T11:30:00.739Z,100139.13
2022-10-25T11:32:51.276Z,100143.44
2022-10-25T11:35:41.238Z,100147.38
2022-10-25T11:38:34.254Z,100146.22
2022-10-25T11:41:15.686Z,100140.75
2022-10-25T11:43:52.801Z,100142.72
2022-10-25T11:46:32.731Z,100136.28
2022-10-25T11:49:28.685Z,100125.50
2022-10-25T11:55:09.518Z,100132.00
2022-10-25T11:57:45.725Z,100125.63
2022-10-25T12:00:22.409Z,100124.72
2022-10-25T12:03:02.458Z,100120.66
2022-10-25T12:06:07.001Z,100127.31
2022-10-25T12:09:13.034Z,100126.25
2022-10-25T12:11:49.954Z,100118.50
2022-10-25T12:14:24.333Z,100115.56
2022-10-25T12:16:51.665Z,100112.00
2022-10-25T12:19:27.049Z,100119.56
2022-10-25T12:22:04.188Z,100121.53
2022-10-25T12:24:39.282Z,100137.50
2022-10-25T12:27:08.428Z,100132.97
2022-10-25T12:29:40.176Z,100129.50
2022-10-25T12:32:15.754Z,100131.81
2022-10-25T12:34:46.108Z,100130.19
2022-10-25T12:37:49.073Z,100128.63
2022-10-25T12:40:19.811Z,100129.31
2022-10-25T12:42:48.389Z,100132.75
2022-10-25T12:45:38.921Z,100131.63
2022-10-25T12:48:48.026Z,100130.72
2022-10-25T12:51:49.744Z,100129.31
2022-10-25T12:54:29.997Z,100122.56
2022-10-25T12:57:25.562Z,100130.03
2022-10-25T13:00:03.776Z,100131.03
2022-10-25T13:02:47.639Z,100123.59
2022-10-25T13:05:30.708Z,100123.59
2022-10-25T13:08:00.138Z,100125.09
2022-10-25T13:10:32.222Z,100129.25
2022-10-25T13:13:04.727Z,100130.06
2022-10-25T13:15:50.223Z,100134.19
2022-10-25T13:18:40.032Z,100132.31
2022-10-25T13:21:12.220Z,100131.44
2022-10-25T13:23:42.560Z,100127.56
2022-10-25T13:26:12.339Z,100126.19
2022-10-25T13:28:51.039Z,100129.13
2022-10-25T13:31:33.973Z,100136.66
2022-10-25T13:34:13.366Z,100132.53
2022-10-25T13:36:54.828Z,100135.06
2022-10-25T13:39:45.167Z,100140.66
2022-10-25T13:42:15.726Z,100136.00
2022-10-25T13:45:04.819Z,100142.78
2022-10-25T13:47:50.470Z,100147.09
2022-10-25T13:50:23.814Z,100142.19
2022-10-25T13:53:22.477Z,100143.78
2022-10-25T13:55:55.482Z,100141.84
2022-10-25T13:58:31.654Z,100140.22
2022-10-25T14:01:15.114Z,100144.97
2022-10-25T14:03:48.432Z,100145.69
2022-10-25T14:06:28.100Z,100146.47
2022-10-25T14:09:33.813Z,100145.06
2022-10-25T14:12:01.130Z,100149.44
2022-10-25T14:14:29.979Z,100154.66
2022-10-25T14:17:19.411Z,100145.13
2022-10-25T14:19:56.499Z,100153.53
2022-10-25T14:22:32.673Z,100156.66
2022-10-25T14:25:06.249Z,100160.59
2022-10-25T14:27:35.984Z,100160.72
2022-10-25T14:30:28.856Z,100157.34
2022-10-25T14:33:01.157Z,100161.72
2022-10-25T14:35:49.246Z,100159.56
2022-10-25T14:38:22.187Z,100163.75
2022-10-25T14:40:57.208Z,100159.47
2022-10-25T14:43:26.035Z,100153.34
2022-10-25T14:46:09.784Z,100156.41
2022-10-25T14:48:37.245Z,100152.34
2022-10-25T14:51:21.790Z,100158.72
2022-10-25T14:54:00.651Z,100155.03
2022-10-25T14:56:31.958Z,100166.22
2022-10-25T14:58:59.980Z,100157.06
2022-10-25T15:01:27.973Z,100165.87
2022-10-25T15:03:57.323Z,100165.66
2022-10-25T15:06:27.370Z,100159.09
2022-10-25T15:09:28.994Z,100159.44
2022-10-25T15:12:07.525Z,100160.72
2022-10-25T15:14:37.047Z,100160.59
2022-10-25T15:17:15.841Z,100166.63
2022-10-25T15:20:07.381Z,100155.53
2022-10-25T15:22:37.370Z,100157.09
2022-10-25T15:25:23.289Z,100159.00
2022-10-25T15:27:52.060Z,100168.44
2022-10-25T15:30:37.787Z,100170.97
2022-10-25T15:33:10.192Z,100176.53
2022-10-25T15:35:48.287Z,100172.72
2022-10-25T15:38:17.493Z,100170.97
2022-10-25T15:40:48.411Z,100174.62
2022-10-25T15:43:15.772Z,100168.91
2022-10-25T15:45:44.038Z,100168.69
2022-10-25T15:48:20.371Z,100166.88
2022-10-25T15:50:50.665Z,100170.31
2022-10-25T15:53:18.396Z,100172.66
2022-10-25T15:55:46.034Z,100168.41
2022-10-25T15:58:13.391Z,100172.94
2022-10-25T16:00:41.077Z,100174.47
2022-10-25T16:03:16.224Z,100170.66
2022-10-25T16:05:43.552Z,100170.94
2022-10-25T16:08:11.209Z,100169.88
2022-10-25T16:10:38.815Z,100166.34
2022-10-25T16:13:10.449Z,100171.41
2022-10-25T16:15:38.178Z,100177.94
2022-10-25T16:18:06.428Z,100174.12
2022-10-25T16:20:34.578Z,100175.41
2022-10-25T16:23:02.206Z,100188.25
2022-10-25T16:25:32.917Z,100180.41
2022-10-25T16:28:00.824Z,100174.72
2022-10-25T16:30:32.408Z,100184.66
2022-10-25T16:32:59.804Z,100185.87
2022-10-25T16:35:27.115Z,100187.22
2022-10-25T16:37:54.995Z,100188.16
2022-10-25T16:40:23.033Z,100181.56
2022-10-25T16:42:50.665Z,100185.44
2022-10-25T16:45:33.152Z,100191.28
2022-10-25T16:48:07.334Z,100183.03
2022-10-25T16:50:38.317Z,100192.94
2022-10-25T16:53:09.718Z,100200.13
2022-10-25T16:55:37.371Z,100196.28
2022-10-25T16:58:05.143Z,100199.78
2022-10-25T17:00:35.408Z,100202.31
2022-10-25T17:03:03.779Z,100210.47
2022-10-25T17:05:33.473Z,100221.44
2022-10-25T17:08:00.838Z,100227.97
2022-10-25T17:10:28.690Z,100220.03
2022-10-25T17:13:03.354Z,100218.12
2022-10-25T17:15:31.628Z,100219.56
2022-10-25T17:17:59.525Z,100218.19
2022-10-25T17:20:27.214Z,100226.69
2022-10-25T17:22:54.844Z,100224.22
2022-10-25T17:25:22.208Z,100234.06
2022-10-25T17:27:51.533Z,100223.41
2022-10-25T17:30:20.687Z,100230.50
2022-10-25T17:32:48.637Z,100234.38
2022-10-25T17:35:16.484Z,100230.69
2022-10-25T17:37:44.511Z,100236.66
2022-10-25T17:40:14.033Z,100231.97
2022-10-25T17:42:41.420Z,100232.81
2022-10-25T17:45:09.563Z,100238.16
2022-10-25T17:47:37.709Z,100232.94
2022-10-25T17:50:05.697Z,100242.12
2022-10-25T17:52:33.295Z,100240.50
2022-10-25T17:55:01.343Z,100244.81
2022-10-25T17:57:29.175Z,100242.09
2022-10-25T17:59:58.348Z,100246.91
2022-10-25T18:02:25.847Z,100246.44
2022-10-25T18:05:15.214Z,100240.91
2022-10-25T18:07:41.456Z,100243.38
2022-10-25T18:10:09.490Z,100246.81
2022-10-25T18:12:37.081Z,100248.25
2022-10-25T18:15:06.081Z,100246.69
2022-10-25T18:17:33.932Z,100249.53
2022-10-25T18:20:01.652Z,100248.22
2022-10-25T18:22:29.607Z,100251.28
2022-10-25T18:24:57.644Z,100246.59
2022-10-25T18:27:25.472Z,100251.59
2022-10-25T18:29:53.357Z,100242.41
2022-10-25T18:32:30.920Z,100248.72
2022-10-25T18:35:01.597Z,100247.91
2022-10-25T18:37:29.658Z,100251.16
2022-10-25T18:39:57.694Z,100248.97
2022-10-25T18:42:25.459Z,100242.56
2022-10-25T18:44:55.369Z,100236.16
2022-10-25T18:47:23.145Z,100238.50
2022-10-25T18:49:50.962Z,100236.97
2022-10-25T18:52:18.639Z,100245.47
2022-10-25T18:54:46.354Z,100245.78
2022-10-25T18:57:15.277Z,100242.81
2022-10-25T18:59:43.443Z,100243.56
2022-10-25T19:02:11.686Z,100240.66
2022-10-25T19:04:39.787Z,100248.56
2022-10-25T19:07:07.921Z,100254.22
2022-10-25T19:09:35.862Z,100241.56
2022-10-25T19:12:03.462Z,100237.97
2022-10-25T19:14:31.223Z,100237.13
2022-10-25T19:16:59.005Z,100236.28
2022-10-25T19:19:26.954Z,100246.84
2022-10-25T19:21:55.316Z,100237.53
2022-10-25T19:24:23.498Z,100233.22
2022-10-25T19:26:51.304Z,100241.16
2022-10-25T19:29:18.919Z,100243.63
2022-10-25T19:31:46.813Z,100245.78
2022-10-25T19:34:14.465Z,100249.06
2022-10-25T19:36:42.525Z,100251.25
2022-10-25T19:39:10.331Z,100252.41
2022-10-25T19:41:38.422Z,100255.03
2022-10-25T19:44:06.652Z,100250.91
2022-10-25T19:46:34.740Z,100257.69
2022-10-25T19:49:02.791Z,100260.47
2022-10-25T19:51:31.093Z,100264.37
2022-10-25T19:53:59.015Z,100264.03
2022-10-25T19:56:26.838Z,100258.94
2022-10-25T19:58:54.797Z,100249.00
2022-10-25T20:01:29.385Z,100257.47
2022-10-25T20:03:59.145Z,100255.62
2022-10-25T20:06:29.236Z,100260.47
2022-10-25T20:08:57.799Z,100257.53
2022-10-25T20:11:26.378Z,100264.06
2022-10-25T20:13:55.417Z,100269.84
2022-10-25T20:16:24.252Z,100274.25
2022-10-25T20:18:52.364Z,100284.31
2022-10-25T20:21:25.119Z,100272.25
2022-10-25T20:24:01.367Z,100278.75
2022-10-25T20:26:31.768Z,100267.44
2022-10-25T20:29:02.901Z,100273.97
2022-10-25T20:31:32.206Z,100274.44
2022-10-25T20:34:00.637Z,100274.31
2022-10-25T20:36:28.336Z,100276.41
2022-10-25T20:38:55.915Z,100277.41
2022-10-25T20:41:26.178Z,100277.50
2022-10-25T20:43:57.172Z,100281.22
2022-10-25T20:46:26.106Z,100285.75
2022-10-25T20:48:54.072Z,100289.38
2022-10-25T20:51:21.722Z,100290.28
2022-10-25T20:53:49.540Z,100288.44
2022-10-25T20:56:17.851Z,100288.88
2022-10-25T20:58:45.487Z,100291.34
2022-10-25T21:01:13.281Z,100297.59
2022-10-25T21:03:40.706Z,100302.13
2022-10-25T21:06:10.595Z,100305.22
2022-10-25T21:08:38.295Z,100303.41
2022-10-25T21:11:07.694Z,100305.47
2022-10-25T21:13:35.890Z,100306.13
2022-10-25T21:16:07.393Z,100302.97
2022-10-25T21:18:36.093Z,100300.25
2022-10-25T21:21:06.741Z,100305.37
2022-10-25T21:23:34.477Z,100311.09
2022-10-25T21:26:04.187Z,100309.53
2022-10-25T21:28:36.743Z,100306.53
2022-10-25T21:31:15.546Z,100308.00
2022-10-25T21:33:51.807Z,100311.94
2022-10-25T21:36:20.592Z,100302.53
2022-10-25T21:38:48.622Z,100308.00
2022-10-25T21:41:18.063Z,100301.09
2022-10-25T21:43:47.366Z,100306.22
2022-10-25T21:46:16.818Z,100316.75
2022-10-25T21:48:47.173Z,100315.28
2022-10-25T21:51:15.296Z,100319.97
2022-10-25T21:53:42.860Z,100306.13
2022-10-25T21:56:14.857Z,100312.69
2022-10-25T21:58:44.586Z,100309.81
2022-10-25T22:01:14.465Z,100305.34
2022-10-25T22:03:42.352Z,100310.50
2022-10-25T22:06:14.723Z,100314.22
2022-10-25T22:08:42.754Z,100310.00
2022-10-25T22:11:15.592Z,100310.38
2022-10-25T22:13:43.981Z,100311.91
2022-10-25T22:16:18.455Z,100307.19
2022-10-25T22:19:00.205Z,100304.22
2022-10-25T22:21:29.674Z,100298.37
2022-10-25T22:23:57.621Z,100308.78
2022-10-25T22:26:25.023Z,100305.66
2022-10-25T22:28:53.485Z,100304.09
2022-10-25T22:31:21.819Z,100302.59
2022-10-25T22:33:54.741Z,100310.06
2022-10-25T22:36:24.323Z,100316.19
2022-10-25T22:38:51.931Z,100305.50
2022-10-25T22:41:21.739Z,100307.34
2022-10-25T22:43:49.785Z,100308.22
2022-10-25T22:46:24.149Z,100308.69
2022-10-25T22:48:53.430Z,100301.53
2022-10-25T22:51:21.370Z,100316.34
2022-10-25T22:53:48.698Z,100309.41
2022-10-25T22:56:18.620Z,100303.53
2022-10-25T22:58:51.315Z,100310.56
2022-10-25T23:01:23.462Z,100297.06
2022-10-25T23:03:54.520Z,100303.34
2022-10-25T23:06:24.877Z,100304.69
2022-10-25T23:09:05.010Z,100306.41
2022-10-25T23:11:34.981Z,100304.78
2022-10-25T23:14:02.709Z,100306.91
2022-10-25T23:16:30.059Z,100312.34
2022-10-25T23:18:57.887Z,100305.19
2022-10-25T23:21:27.004Z,100297.84
2022-10-25T23:23:54.942Z,100297.28
2022-10-25T23:26:31.798Z,100291.09
2022-10-25T23:28:59.820Z,100294.34
2022-10-25T23:31:28.072Z,100294.06
2022-10-25T23:33:57.504Z,100290.94
2022-10-25T23:36:27.132Z,100284.44
2022-10-25T23:38:55.464Z,100284.87
2022-10-25T23:41:22.975Z,100290.34
2022-10-25T23:43:50.574Z,100292.72
2022-10-25T23:46:18.171Z,100297.13
2022-10-25T23:48:45.494Z,100296.62
2022-10-25T23:51:15.366Z,100295.38
2022-10-25T23:53:43.273Z,100298.56
2022-10-25T23:56:12.574Z,100300.97
2022-10-25T23:58:40.184Z,100293.88
